createdAt,value
2022-09-20T00:01:13.716Z,5.30
2022-09-20T00:03:42.691Z,4.25
2022-09-20T00:06:12.574Z,11.65
2022-09-20T00:08:40.532Z,6.93
2022-09-20T00:11:15.807Z,6.15
2022-09-20T00:13:44.252Z,7.20
2022-09-20T00:16:14.010Z,5.40
2022-09-20T00:18:41.147Z,8.23
2022-09-20T00:21:12.109Z,5.88
2022-09-20T00:23:38.820Z,4.85
2022-09-20T00:26:05.525Z,4.45
2022-09-20T00:28:33.180Z,5.10
2022-09-20T00:30:59.955Z,6.25
2022-09-20T00:33:49.489Z,6.18
2022-09-20T00:36:16.517Z,5.40
2022-09-20T00:38:43.218Z,4.07
2022-09-20T00:41:10.305Z,4.85
2022-09-20T00:43:47.457Z,7.82
2022-09-20T00:46:23.019Z,8.50
2022-09-20T00:48:52.976Z,9.45
2022-09-20T00:51:28.575Z,10.52
2022-09-20T00:53:57.749Z,6.55
2022-09-20T00:56:37.162Z,6.28
2022-09-20T00:59:08.492Z,8.15
2022-09-20T01:01:36.342Z,4.60
2022-09-20T01:04:03.854Z,4.45
2022-09-20T01:06:32.450Z,4.95
2022-09-20T01:09:02.961Z,6.50
2022-09-20T01:11:30.969Z,7.82
2022-09-20T01:13:58.108Z,6.15
2022-09-20T01:16:26.839Z,8.57
2022-09-20T01:18:57.056Z,7.60
2022-09-20T01:21:24.887Z,4.00
2022-09-20T01:24:09.602Z,10.13
2022-09-20T01:27:03.858Z,7.30
2022-09-20T01:29:52.157Z,6.10
2022-09-20T01:32:23.571Z,7.03
2022-09-20T01:34:57.427Z,6.15
2022-09-20T01:38:02.905Z,10.02
2022-09-20T01:40:48.155Z,7.30
2022-09-20T01:43:32.817Z,9.40
2022-09-20T01:46:29.987Z,8.15
2022-09-20T01:49:21.036Z,8.07
2022-09-20T01:51:59.339Z,7.20
2022-09-20T01:54:52.168Z,6.25
2022-09-20T01:57:41.249Z,8.52
2022-09-20T02:00:19.878Z,11.20
2022-09-20T02:02:49.235Z,5.85
2022-09-20T02:05:53.465Z,3.10
2022-09-20T02:08:50.999Z,6.25
2022-09-20T02:11:19.960Z,11.48
2022-09-20T02:14:08.786Z,11.77
2022-09-20T02:16:48.338Z,11.82
2022-09-20T02:19:34.144Z,12.38
2022-09-20T02:22:48.818Z,13.82
2022-09-20T02:25:26.219Z,18.77
2022-09-20T02:28:08.018Z,12.50
2022-09-20T02:30:58.991Z,12.77
2022-09-20T02:34:00.878Z,13.13
2022-09-20T02:36:54.536Z,14.82
2022-09-20T02:39:28.327Z,9.70
2022-09-20T02:42:08.088Z,5.55
2022-09-20T02:45:05.303Z,8.02
2022-09-20T02:47:42.385Z,10.65
2022-09-20T02:50:18.102Z,20.65
2022-09-20T02:53:11.172Z,16.25
2022-09-20T02:56:01.945Z,16.25
2022-09-20T02:59:03.440Z,14.10
2022-09-20T03:01:38.982Z,15.25
2022-09-20T03:04:47.695Z,12.73
2022-09-20T03:07:49.384Z,9.50
2022-09-20T03:10:20.467Z,12.87
2022-09-20T03:12:47.014Z,12.50
2022-09-20T03:15:45.287Z,12.13
2022-09-20T03:18:16.719Z,19.17
2022-09-20T03:21:03.525Z,19.13
2022-09-20T03:24:13.004Z,12.77
2022-09-20T03:27:16.366Z,9.73
2022-09-20T03:30:01.346Z,14.07
2022-09-20T03:32:58.023Z,12.80
2022-09-20T03:35:39.013Z,8.77
2022-09-20T03:38:11.469Z,9.15
2022-09-20T03:41:02.895Z,11.07
2022-09-20T03:43:57.575Z,11.43
2022-09-20T03:46:29.292Z,16.75
2022-09-20T03:49:02.838Z,10.18
2022-09-20T03:51:45.274Z,10.02
2022-09-20T03:54:36.639Z,11.18
2022-09-20T03:57:15.787Z,8.60
2022-09-20T03:59:57.239Z,10.40
2022-09-20T04:03:00.633Z,10.55
2022-09-20T04:05:45.557Z,13.05
2022-09-20T04:08:43.080Z,12.88
2022-09-20T04:11:44.125Z,11.85
2022-09-20T04:14:38.257Z,16.40
2022-09-20T04:17:20.126Z,7.45
2022-09-20T04:20:07.616Z,6.82
2022-09-20T04:22:34.770Z,4.30
2022-09-20T04:25:13.283Z,7.10
2022-09-20T04:27:50.403Z,8.80
2022-09-20T04:30:20.352Z,6.63
2022-09-20T04:33:14.881Z,10.38
2022-09-20T04:36:21.517Z,11.23
2022-09-20T04:39:05.912Z,7.88
2022-09-20T04:41:51.226Z,9.25
2022-09-20T04:44:35.380Z,6.30
2022-09-20T04:47:02.702Z,6.03
2022-09-20T04:49:53.619Z,12.52
2022-09-20T04:52:44.787Z,6.57
2022-09-20T04:55:45.992Z,7.32
2022-09-20T04:58:47.873Z,5.28
2022-09-20T05:01:51.697Z,8.88
2022-09-20T05:04:38.209Z,3.97
2022-09-20T05:07:26.318Z,5.13
2022-09-20T05:10:19.139Z,5.68
2022-09-20T05:13:00.970Z,6.97
2022-09-20T05:15:36.278Z,7.07
2022-09-20T05:18:10.837Z,5.43
2022-09-20T05:21:04.729Z,4.00
2022-09-20T05:23:40.185Z,7.50
2022-09-20T05:26:14.757Z,13.75
2022-09-20T05:28:49.500Z,18.27
2022-09-20T05:31:40.254Z,16.55
2022-09-20T05:34:31.631Z,14.57
2022-09-20T05:37:32.059Z,9.77
2022-09-20T05:40:18.378Z,10.15
2022-09-20T05:43:11.320Z,14.20
2022-09-20T05:45:43.791Z,9.32
2022-09-20T05:48:32.335Z,9.43
2022-09-20T05:51:06.572Z,8.75
2022-09-20T05:53:52.379Z,9.35
2022-09-20T05:56:43.019Z,10.13
2022-09-20T05:59:38.051Z,6.05
2022-09-20T06:02:28.082Z,5.35
2022-09-20T06:05:03.591Z,4.10
2022-09-20T06:07:52.575Z,4.15
2022-09-20T06:10:39.668Z,5.50
2022-09-20T06:13:43.307Z,6.30
2022-09-20T06:16:17.733Z,5.35
2022-09-20T06:18:57.211Z,10.70
2022-09-20T06:21:49.881Z,12.68
2022-09-20T06:24:44.397Z,10.23
2022-09-20T06:27:15.506Z,12.32
2022-09-20T06:29:48.368Z,9.88
2022-09-20T06:32:18.986Z,7.88
2022-09-20T06:34:46.732Z,8.82
2022-09-20T06:37:48.578Z,10.35
2022-09-20T06:41:19.814Z,12.65
2022-09-20T06:43:48.396Z,12.02
2022-09-20T06:46:15.981Z,9.95
2022-09-20T06:48:42.612Z,17.17
2022-09-20T06:51:09.609Z,12.93
2022-09-20T06:53:40.192Z,13.05
2022-09-20T06:56:14.414Z,13.32
2022-09-20T06:58:41.011Z,20.02
2022-09-20T07:01:07.639Z,11.63
2022-09-20T07:03:34.226Z,14.88
2022-09-20T07:06:01.041Z,10.82
2022-09-20T07:08:27.864Z,16.20
2022-09-20T07:10:54.556Z,7.82
2022-09-20T07:13:21.425Z,18.05
2022-09-20T07:15:48.317Z,16.45
2022-09-20T07:18:14.974Z,22.67
2022-09-20T07:20:41.822Z,24.15
2022-09-20T07:23:08.470Z,22.33
2022-09-20T07:25:36.593Z,21.73
2022-09-20T07:28:03.348Z,22.05
2022-09-20T07:30:29.978Z,14.30
2022-09-20T07:32:56.605Z,9.85
2022-09-20T07:35:23.365Z,11.80
2022-09-20T07:37:56.700Z,11.15
2022-09-20T07:40:23.472Z,11.45
2022-09-20T07:42:53.081Z,18.02
2022-09-20T07:45:23.936Z,17.95
2022-09-20T07:47:50.591Z,11.80
2022-09-20T07:50:17.306Z,12.65
2022-09-20T07:52:44.077Z,13.55
2022-09-20T07:55:10.843Z,9.13
2022-09-20T07:57:38.451Z,12.60
2022-09-20T08:00:08.659Z,18.75
2022-09-20T08:02:36.390Z,22.58
2022-09-20T08:05:04.872Z,23.70
2022-09-20T08:07:31.479Z,25.63
2022-09-20T08:09:58.078Z,21.63
2022-09-20T08:15:12.129Z,23.05
2022-09-20T08:17:40.233Z,16.92
2022-09-20T08:20:07.722Z,13.75
2022-09-20T08:22:34.797Z,18.73
2022-09-20T08:25:01.410Z,10.32
2022-09-20T08:27:28.077Z,12.82
2022-09-20T08:29:57.219Z,13.65
2022-09-20T08:32:23.856Z,13.88
2022-09-20T08:34:50.455Z,18.15
2022-09-20T08:37:17.110Z,22.73
2022-09-20T08:40:01.179Z,20.60
2022-09-20T08:42:36.754Z,14.38
2022-09-20T08:45:22.293Z,13.93
2022-09-20T08:48:00.327Z,17.50
2022-09-20T08:50:29.793Z,9.32
2022-09-20T08:53:04.825Z,11.02
2022-09-20T08:55:39.988Z,12.57
2022-09-20T08:58:10.781Z,12.27
2022-09-20T09:00:39.107Z,10.93
2022-09-20T09:03:14.292Z,9.38
2022-09-20T09:05:47.400Z,11.63
2022-09-20T09:08:38.512Z,10.38
2022-09-20T09:11:14.184Z,7.38
2022-09-20T09:13:52.956Z,12.02
2022-09-20T09:16:25.740Z,8.70
2022-09-20T09:18:56.882Z,9.52
2022-09-20T09:21:29.968Z,12.40
2022-09-20T09:24:12.682Z,10.77
2022-09-20T09:26:41.182Z,8.48
2022-09-20T09:29:09.018Z,12.18
2022-09-20T09:31:37.226Z,10.93
2022-09-20T09:34:04.522Z,7.68
2022-09-20T09:36:33.231Z,9.10
2022-09-20T09:39:23.116Z,7.22
2022-09-20T09:41:51.005Z,6.43
2022-09-20T09:44:27.618Z,7.75
2022-09-20T09:46:55.776Z,7.88
2022-09-20T09:49:27.459Z,4.93
2022-09-20T09:52:14.463Z,7.10
2022-09-20T09:54:52.784Z,12.02
2022-09-20T09:57:41.383Z,10.07
2022-09-20T10:00:18.669Z,11.77
2022-09-20T10:03:15.373Z,9.35
2022-09-20T10:05:48.210Z,12.05
2022-09-20T10:08:57.389Z,8.98
2022-09-20T10:11:47.409Z,8.93
2022-09-20T10:14:29.565Z,14.68
2022-09-20T10:20:02.836Z,7.03
2022-09-20T10:23:21.716Z,8.05
2022-09-20T10:25:59.547Z,8.75
2022-09-20T10:28:48.289Z,6.18
2022-09-20T10:31:35.640Z,3.83
2022-09-20T10:34:30.970Z,4.90
2022-09-20T10:37:00.305Z,4.55
2022-09-20T10:39:30.222Z,7.82
2022-09-20T10:42:34.444Z,3.17
2022-09-20T10:45:43.906Z,5.57
2022-09-20T10:48:18.201Z,5.70
2022-09-20T10:50:57.611Z,6.63
2022-09-20T10:53:58.982Z,7.05
2022-09-20T10:56:43.070Z,6.75
2022-09-20T10:59:38.142Z,7.00
2022-09-20T11:02:24.882Z,4.10
2022-09-20T11:05:18.322Z,5.30
2022-09-20T11:08:11.880Z,3.78
2022-09-20T11:10:54.511Z,4.65
2022-09-20T11:13:26.702Z,5.13
2022-09-20T11:16:23.208Z,5.25
2022-09-20T11:19:11.192Z,5.35
2022-09-20T11:21:44.741Z,3.13
2022-09-20T11:24:47.879Z,5.28
2022-09-20T11:27:29.591Z,2.55
2022-09-20T11:30:02.642Z,4.70
2022-09-20T11:32:39.100Z,2.67
2022-09-20T11:35:11.489Z,4.07
2022-09-20T11:37:46.485Z,5.72
2022-09-20T11:40:24.897Z,3.38
2022-09-20T11:42:52.816Z,4.40
2022-09-20T11:45:23.984Z,5.22
2022-09-20T11:47:59.171Z,2.00
2022-09-20T11:50:47.478Z,2.10
2022-09-20T11:53:41.962Z,4.72
2022-09-20T11:56:20.102Z,2.90
2022-09-20T11:58:55.834Z,3.35
2022-09-20T12:01:33.006Z,2.70
2022-09-20T12:04:31.128Z,2.63
2022-09-20T12:07:22.864Z,2.67
2022-09-20T12:10:08.667Z,5.28
2022-09-20T12:12:46.891Z,4.68
2022-09-20T12:15:33.047Z,2.28
2022-09-20T12:17:59.627Z,1.83
2022-09-20T12:20:35.472Z,3.83
2022-09-20T12:23:45.212Z,1.65
2022-09-20T12:26:21.441Z,4.03
2022-09-20T12:28:55.115Z,2.75
2022-09-20T12:31:21.918Z,3.63
2022-09-20T12:34:05.615Z,3.92
2022-09-20T12:36:36.050Z,2.63
2022-09-20T12:39:30.013Z,3.90
2022-09-20T12:42:12.501Z,2.33
2022-09-20T12:45:07.224Z,3.83
2022-09-20T12:47:36.554Z,3.50
2022-09-20T12:50:33.307Z,3.75
2022-09-20T12:53:07.107Z,3.05
2022-09-20T12:55:43.805Z,3.53
2022-09-20T12:58:14.018Z,1.67
2022-09-20T13:00:57.904Z,5.40
2022-09-20T13:03:37.799Z,3.17
2022-09-20T13:06:09.489Z,3.35
2022-09-20T13:08:52.000Z,1.70
2022-09-20T13:11:32.105Z,1.42
2022-09-20T13:14:05.431Z,3.17
2022-09-20T13:16:37.695Z,5.97
2022-09-20T13:19:12.007Z,5.10
2022-09-20T13:21:42.263Z,2.47
2022-09-20T13:24:15.834Z,2.75
2022-09-20T13:26:46.102Z,2.60
2022-09-20T13:29:27.401Z,3.72
2022-09-20T13:31:56.328Z,3.83
2022-09-20T13:34:25.692Z,3.05
2022-09-20T13:36:58.091Z,3.15
2022-09-20T13:39:39.363Z,2.03
2022-09-20T13:42:12.111Z,2.42
2022-09-20T13:44:39.432Z,1.77
2022-09-20T13:47:43.230Z,2.45
2022-09-20T13:50:28.640Z,4.95
2022-09-20T13:52:57.982Z,2.25
2022-09-20T13:55:33.220Z,2.45
2022-09-20T13:58:03.945Z,1.33
2022-09-20T14:00:32.148Z,6.75
2022-09-20T14:02:59.330Z,2.60
2022-09-20T14:05:29.223Z,1.52
2022-09-20T14:07:57.581Z,1.45
2022-09-20T14:10:29.271Z,3.47
2022-09-20T14:15:23.825Z,1.88
2022-09-20T14:17:53.231Z,1.77
2022-09-20T14:20:20.047Z,2.78
2022-09-20T14:22:46.901Z,3.20
2022-09-20T14:25:13.512Z,1.25
2022-09-20T14:27:40.858Z,3.50
2022-09-20T14:30:30.165Z,3.15
2022-09-20T14:32:57.812Z,1.63
2022-09-20T14:35:24.536Z,3.45
2022-09-20T14:37:52.555Z,2.40
2022-09-20T14:40:40.357Z,3.65
2022-09-20T14:43:17.605Z,2.17
2022-09-20T14:45:54.187Z,3.65
2022-09-20T14:48:21.352Z,4.45
2022-09-20T14:51:22.106Z,1.85
2022-09-20T14:54:13.543Z,1.33
2022-09-20T14:56:47.676Z,4.60
2022-09-20T14:59:17.274Z,2.70
2022-09-20T15:02:12.587Z,0.98
2022-09-20T15:04:41.985Z,4.40
2022-09-20T15:07:11.707Z,6.30
2022-09-20T15:09:40.782Z,1.60
2022-09-20T15:12:19.040Z,7.85
2022-09-20T15:14:46.593Z,2.92
2022-09-20T15:17:16.511Z,2.53
2022-09-20T15:19:43.232Z,0.93
2022-09-20T15:22:12.647Z,3.50
2022-09-20T15:24:39.780Z,2.47
2022-09-20T15:27:06.478Z,6.00
2022-09-20T15:29:33.459Z,4.20
2022-09-20T15:32:00.215Z,2.45
2022-09-20T15:34:27.028Z,1.45
2022-09-20T15:36:54.637Z,3.17
2022-09-20T15:39:22.298Z,2.33
2022-09-20T15:41:52.464Z,1.95
2022-09-20T15:44:19.861Z,1.70
2022-09-20T15:46:48.182Z,3.72
2022-09-20T15:49:14.797Z,1.58
2022-09-20T15:51:41.707Z,2.95
2022-09-20T15:54:12.230Z,4.40
2022-09-20T15:56:41.631Z,1.90
2022-09-20T15:59:10.954Z,5.13
2022-09-20T16:01:39.870Z,4.20
2022-09-20T16:04:09.902Z,4.65
2022-09-20T16:06:37.787Z,9.25
2022-09-20T16:09:05.399Z,3.50
2022-09-20T16:11:32.307Z,3.85
2022-09-20T16:14:00.335Z,2.88
2022-09-20T16:16:29.162Z,2.88
2022-09-20T16:19:15.454Z,6.30
2022-09-20T16:21:43.770Z,3.08
2022-09-20T16:24:13.966Z,7.97
2022-09-20T16:26:41.094Z,2.85
2022-09-20T16:29:07.892Z,3.80
2022-09-20T16:31:41.458Z,6.20
2022-09-20T16:34:14.020Z,6.38
2022-09-20T16:36:42.242Z,4.00
2022-09-20T16:39:09.522Z,5.05
2022-09-20T16:41:37.929Z,5.35
2022-09-20T16:44:04.867Z,3.17
2022-09-20T16:46:32.724Z,3.28
2022-09-20T16:49:00.998Z,5.43
2022-09-20T16:51:33.213Z,5.22
2022-09-20T16:54:05.041Z,5.28
2022-09-20T16:56:34.102Z,3.22
2022-09-20T16:59:04.258Z,3.22
2022-09-20T17:01:31.981Z,3.78
2022-09-20T17:03:59.114Z,22.13
2022-09-20T17:06:27.211Z,12.50
2022-09-20T17:08:58.809Z,6.00
2022-09-20T17:13:54.903Z,5.97
2022-09-20T17:16:27.781Z,9.57
2022-09-20T17:18:58.123Z,5.80
2022-09-20T17:21:25.829Z,6.38
2022-09-20T17:23:57.663Z,7.70
2022-09-20T17:26:33.015Z,5.43
2022-09-20T17:29:01.699Z,13.50
2022-09-20T17:31:34.407Z,5.45
2022-09-20T17:34:02.276Z,6.07
2022-09-20T17:36:31.917Z,6.45
2022-09-20T17:39:04.127Z,8.27
2022-09-20T17:41:32.781Z,7.70
2022-09-20T17:44:02.549Z,13.15
2022-09-20T17:46:31.738Z,12.10
2022-09-20T17:49:01.062Z,8.80
2022-09-20T17:51:48.715Z,8.15
2022-09-20T17:54:15.938Z,7.15
2022-09-20T17:56:44.887Z,7.25
2022-09-20T17:59:12.959Z,4.88
2022-09-20T18:01:40.478Z,6.50
2022-09-20T18:04:08.112Z,8.73
2022-09-20T18:06:55.559Z,5.32
2022-09-20T18:09:25.221Z,4.82
2022-09-20T18:11:53.485Z,4.70
2022-09-20T18:14:25.480Z,5.72
2022-09-20T18:19:21.343Z,4.80
2022-09-20T18:21:48.280Z,5.47
2022-09-20T18:24:14.960Z,4.45
2022-09-20T18:26:42.020Z,5.90
2022-09-20T18:29:13.310Z,4.10
2022-09-20T18:31:47.553Z,5.45
2022-09-20T18:34:21.108Z,5.68
2022-09-20T18:36:55.990Z,4.20
2022-09-20T18:39:33.706Z,4.07
2022-09-20T18:42:03.417Z,3.97
2022-09-20T18:44:34.265Z,4.18
2022-09-20T18:47:07.400Z,3.72
2022-09-20T18:49:34.322Z,4.45
2022-09-20T18:52:01.401Z,3.53
2022-09-20T18:54:33.553Z,6.43
2022-09-20T18:57:00.649Z,3.97
2022-09-20T18:59:28.114Z,7.43
2022-09-20T19:02:12.226Z,5.90
2022-09-20T19:04:46.764Z,8.45
2022-09-20T19:07:28.382Z,6.93
2022-09-20T19:10:37.887Z,9.18
2022-09-20T19:13:30.153Z,9.02
2022-09-20T19:16:16.475Z,10.40
2022-09-20T19:19:09.142Z,7.25
2022-09-20T19:21:42.806Z,10.02
2022-09-20T19:24:28.264Z,10.10
2022-09-20T19:26:55.088Z,8.98
2022-09-20T19:29:25.142Z,8.63
2022-09-20T19:31:55.484Z,9.13
2022-09-20T19:34:23.567Z,9.27
2022-09-20T19:37:12.146Z,11.63
2022-09-20T19:39:41.712Z,6.15
2022-09-20T19:42:26.489Z,5.05
2022-09-20T19:44:59.034Z,6.13
2022-09-20T19:47:45.705Z,8.77
2022-09-20T19:50:33.366Z,6.55
2022-09-20T19:53:04.194Z,7.32
2022-09-20T19:55:32.564Z,10.05
2022-09-20T19:57:59.841Z,5.50
2022-09-20T20:00:27.141Z,5.05
2022-09-20T20:02:54.493Z,6.13
2022-09-20T20:05:25.571Z,8.48
2022-09-20T20:08:05.390Z,18.47
2022-09-20T20:10:41.957Z,21.83
2022-09-20T20:13:37.516Z,14.63
2022-09-20T20:16:13.088Z,12.18
2022-09-20T20:19:15.040Z,16.85
2022-09-20T20:22:02.569Z,35.33
2022-09-20T20:24:48.050Z,26.40
2022-09-20T20:27:14.718Z,21.58
2022-09-20T20:29:41.345Z,33.67
2022-09-20T20:32:08.121Z,24.38
2022-09-20T20:34:36.887Z,20.73
2022-09-20T20:37:07.679Z,16.35
2022-09-20T20:39:34.634Z,14.40
2022-09-20T20:42:03.193Z,12.75
2022-09-20T20:44:31.453Z,11.13
2022-09-20T20:46:58.159Z,10.07
2022-09-20T20:49:24.847Z,8.85
2022-09-20T20:51:51.515Z,12.38
2022-09-20T20:54:18.128Z,14.20
2022-09-20T20:56:44.791Z,13.15
2022-09-20T20:59:11.491Z,11.20
2022-09-20T21:01:42.796Z,9.32
2022-09-20T21:04:10.282Z,8.00
2022-09-20T21:06:40.721Z,12.05
2022-09-20T21:09:08.872Z,9.63
2022-09-20T21:11:38.623Z,12.27
2022-09-20T21:14:07.306Z,8.80
2022-09-20T21:16:36.503Z,10.00
2022-09-20T21:19:04.802Z,9.57
2022-09-20T21:21:36.680Z,10.23
2022-09-20T21:24:08.456Z,8.32
2022-09-20T21:26:36.961Z,9.55
2022-09-20T21:29:10.875Z,9.60
2022-09-20T21:31:39.648Z,9.65
2022-09-20T21:34:07.596Z,9.43
2022-09-20T21:36:35.908Z,7.00
2022-09-20T21:39:02.936Z,10.82
2022-09-20T21:41:31.958Z,8.77
2022-09-20T21:44:00.707Z,6.40
2022-09-20T21:46:32.511Z,11.82
2022-09-20T21:49:01.441Z,8.05
2022-09-20T21:51:31.207Z,6.82
2022-09-20T21:54:00.683Z,9.65
2022-09-20T21:56:31.227Z,8.85
2022-09-20T21:58:58.724Z,6.80
2022-09-20T22:01:27.623Z,6.53
2022-09-20T22:03:58.854Z,6.88
2022-09-20T22:06:30.455Z,7.17
2022-09-20T22:09:01.123Z,8.15
2022-09-20T22:11:38.693Z,8.77
2022-09-20T22:14:06.521Z,14.25
2022-09-20T22:16:35.207Z,7.45
2022-09-20T22:19:03.291Z,6.85
2022-09-20T22:21:32.568Z,6.10
2022-09-20T22:24:01.585Z,7.32
2022-09-20T22:26:36.624Z,7.63
2022-09-20T22:29:03.708Z,9.02
2022-09-20T22:31:32.163Z,6.72
2022-09-20T22:34:02.096Z,7.85
2022-09-20T22:36:34.356Z,6.65
2022-09-20T22:39:01.864Z,9.55
2022-09-20T22:41:28.568Z,11.57
2022-09-20T22:43:55.224Z,8.55
2022-09-20T22:46:23.994Z,6.88
2022-09-20T22:48:51.182Z,7.07
2022-09-20T22:51:19.843Z,9.00
2022-09-20T22:53:47.587Z,6.00
2022-09-20T22:56:17.216Z,5.03
2022-09-20T22:58:46.310Z,5.53
2022-09-20T23:01:23.619Z,5.50
2022-09-20T23:03:56.003Z,5.40
2022-09-20T23:06:40.469Z,5.20
2022-09-20T23:09:09.472Z,8.60
2022-09-20T23:11:36.645Z,6.65
2022-09-20T23:14:05.810Z,6.22
2022-09-20T23:16:35.038Z,4.45
2022-09-20T23:19:03.692Z,4.97
2022-09-20T23:21:30.584Z,6.90
2022-09-20T23:24:05.503Z,9.27
2022-09-20T23:26:33.979Z,6.57
2022-09-20T23:29:03.529Z,4.22
2022-09-20T23:31:31.884Z,6.80
2022-09-20T23:34:02.888Z,4.90
2022-09-20T23:36:31.262Z,4.47
2022-09-20T23:38:58.366Z,5.68
2022-09-20T23:41:26.414Z,4.45
2022-09-20T23:43:53.615Z,4.40
2022-09-20T23:46:22.319Z,9.70
2022-09-20T23:48:50.434Z,4.70
2022-09-20T23:51:22.599Z,5.68
2022-09-20T23:53:50.468Z,6.13
2022-09-20T23:56:17.610Z,4.68
2022-09-20T23:58:45.465Z,4.95
